Time;durP1;ratioP1;P1;durP2;ratioP2;P2;SDS_P1;SDS_P2;PMS_P1;PMS_P2;Temp;Humidity;BMP_temperature;BMP_pressure;BME280_temperature;BME280_humidity;BME280_pressure;Samples;Min_cycle;Max_cycle;Signal;HPM_P1;HPM_P2
2021/11/10 00:00:42;;;;;;;104.10;46.60;;;;;;;1.34;100.00;100627.03;2086687;28;20246;-75
2021/11/10 00:01:45;;;;;;;110.90;46.38;;;;;;;1.35;100.00;100626.84;2095347;28;20402;-75
2021/11/10 00:02:47;;;;;;;124.90;48.58;;;;;;;1.31;100.00;100630.09;2094777;28;20730;-76
2021/11/10 00:03:48;;;;;;;120.28;47.20;;;;;;;1.31;100.00;100632.72;2095594;28;20222;-76
2021/11/10 00:04:49;;;;;;;244.33;51.53;;;;;;;1.27;100.00;100623.56;2096205;28;20268;-75
2021/11/10 00:05:50;;;;;;;136.18;48.30;;;;;;;1.28;100.00;100625.19;2095405;28;20307;-76
2021/11/10 00:06:52;;;;;;;111.80;46.47;;;;;;;1.24;100.00;100619.53;2087174;28;20665;-75
2021/11/10 00:07:53;;;;;;;108.78;46.13;;;;;;;1.25;100.00;100628.22;2086137;28;20223;-75
2021/11/10 00:08:55;;;;;;;129.93;48.63;;;;;;;1.22;100.00;100626.00;2086920;28;20665;-75
2021/11/10 00:09:58;;;;;;;106.38;46.42;;;;;;;1.22;100.00;100629.44;2095469;28;20585;-75
2021/11/10 00:11:01;;;;;;;114.68;47.30;;;;;;;1.21;100.00;100629.59;2095975;28;20360;-75
2021/11/10 00:12:04;;;;;;;112.40;48.15;;;;;;;1.23;100.00;100627.63;2095335;28;20218;-77
2021/11/10 00:13:18;;;;;;;93.25;47.08;;;;;;;1.19;100.00;100627.19;2095228;28;20256;-78
2021/11/10 00:14:19;;;;;;;93.53;46.05;;;;;;;1.18;100.00;100622.13;2095835;28;20236;-78
2021/11/10 00:15:22;;;;;;;133.37;50.07;;;;;;;1.17;100.00;100626.56;2095924;28;20249;-74
2021/11/10 00:16:23;;;;;;;102.07;46.20;;;;;;;1.16;100.00;100626.78;2094853;28;20396;-74
2021/11/10 00:17:25;;;;;;;105.88;48.33;;;;;;;1.14;100.00;100629.59;2094827;28;20317;-74
2021/11/10 00:18:26;;;;;;;109.18;47.78;;;;;;;1.15;100.00;100620.72;2103770;28;20253;-75
2021/11/10 00:19:29;;;;;;;118.85;47.30;;;;;;;1.17;100.00;100621.31;2096237;28;20301;-74
2021/11/10 00:20:29;;;;;;;103.13;48.67;;;;;;;1.16;100.00;100624.16;2095256;28;20233;-75
2021/11/10 00:21:32;;;;;;;124.53;49.17;;;;;;;1.15;100.00;100633.03;2086603;28;20301;-75
2021/11/10 00:22:35;;;;;;;128.65;50.50;;;;;;;1.16;100.00;100624.94;2095365;28;20229;-75
2021/11/10 00:23:39;;;;;;;110.32;49.22;;;;;;;1.15;100.00;100627.78;2095024;28;20228;-75
2021/11/10 00:24:39;;;;;;;117.35;49.00;;;;;;;1.16;100.00;100634.66;2094953;28;20221;-74
2021/11/10 00:25:41;;;;;;;114.40;48.20;;;;;;;1.15;100.00;100639.09;2095905;28;20740;-74
2021/11/10 00:26:43;;;;;;;115.53;48.25;;;;;;;1.22;100.00;100636.50;2095122;28;20704;-75
2021/11/10 00:27:46;;;;;;;129.63;49.50;;;;;;;1.20;100.00;100635.88;2087166;28;20218;-75
2021/11/10 00:28:48;;;;;;;110.72;48.88;;;;;;;1.18;100.00;100645.78;2095230;28;20222;-75
2021/11/10 00:29:56;;;;;;;128.63;52.17;;;;;;;1.16;100.00;100643.34;2103566;28;20330;-75
2021/11/10 00:31:00;;;;;;;158.07;53.35;;;;;;;1.11;100.00;100646.56;2102640;28;22625;-75
2021/11/10 00:32:02;;;;;;;134.25;51.70;;;;;;;1.11;100.00;100643.13;2095690;28;20599;-76
2021/11/10 00:33:03;;;;;;;169.80;51.78;;;;;;;1.09;100.00;100645.94;2103107;28;20675;-75
2021/11/10 00:34:05;;;;;;;123.05;48.33;;;;;;;1.10;100.00;100644.94;2103629;28;20231;-75
2021/11/10 00:35:06;;;;;;;199.25;54.10;;;;;;;1.09;100.00;100651.19;2094827;28;20304;-77
2021/11/10 00:36:08;;;;;;;129.00;51.05;;;;;;;1.07;100.00;100650.59;2094768;28;20230;-76
2021/11/10 00:37:13;;;;;;;113.07;50.42;;;;;;;1.07;100.00;100647.16;2095978;28;20695;-76
2021/11/10 00:38:15;;;;;;;131.73;51.15;;;;;;;1.10;100.00;100652.00;2102982;28;20217;-77
2021/11/10 00:39:17;;;;;;;133.57;51.83;;;;;;;1.10;100.00;100658.06;2094531;28;20632;-75
2021/11/10 00:40:19;;;;;;;137.00;51.30;;;;;;;1.09;100.00;100653.81;2095282;28;20303;-75
2021/11/10 00:41:20;;;;;;;106.32;50.85;;;;;;;1.11;100.00;100648.38;2095067;28;20245;-75
2021/11/10 00:42:24;;;;;;;124.47;50.70;;;;;;;1.12;100.00;100650.81;2095139;28;20312;-75
2021/11/10 00:43:24;;;;;;;134.52;50.45;;;;;;;1.13;100.00;100649.81;2095552;28;20226;-74
2021/11/10 00:44:29;;;;;;;160.88;50.78;;;;;;;1.18;100.00;100648.41;2094853;28;20232;-74
2021/11/10 00:45:29;;;;;;;122.60;49.75;;;;;;;1.16;100.00;100643.34;2094955;28;20226;-76
2021/11/10 00:46:33;;;;;;;116.80;47.10;;;;;;;1.18;100.00;100653.66;2094882;28;20272;-75
2021/11/10 00:47:33;;;;;;;114.93;47.63;;;;;;;1.18;100.00;100648.41;2094923;28;20228;-75
2021/11/10 00:48:35;;;;;;;168.23;53.13;;;;;;;1.17;100.00;100644.16;2086018;28;20310;-75
2021/11/10 00:49:37;;;;;;;138.52;50.40;;;;;;;1.16;100.00;100640.72;2086289;28;20669;-74
2021/11/10 00:50:41;;;;;;;287.37;55.97;;;;;;;1.16;100.00;100645.97;2095125;28;20602;-74
2021/11/10 00:51:42;;;;;;;120.93;50.60;;;;;;;1.18;100.00;100640.53;2095756;28;20222;-75
2021/11/10 00:52:44;;;;;;;128.60;50.33;;;;;;;1.22;100.00;100649.66;2094970;28;20242;-75
2021/11/10 00:53:46;;;;;;;157.63;51.92;;;;;;;1.20;100.00;100633.25;2086809;28;20240;-75
2021/11/10 00:54:47;;;;;;;127.85;50.83;;;;;;;1.22;100.00;100626.81;2095095;28;20264;-75
2021/11/10 00:55:48;;;;;;;181.35;52.85;;;;;;;1.23;100.00;100635.50;2094912;28;20259;-75
2021/11/10 00:56:50;;;;;;;121.37;49.63;;;;;;;1.21;100.00;100635.69;2086558;28;20276;-76
2021/11/10 00:57:53;;;;;;;124.22;50.92;;;;;;;1.22;100.00;100639.16;2095027;28;20723;-75
2021/11/10 00:58:54;;;;;;;150.85;51.58;;;;;;;1.27;100.00;100627.00;2094530;28;20222;-75
2021/11/10 00:59:56;;;;;;;170.67;52.27;;;;;;;1.28;100.00;100627.81;2086625;28;20281;-75
2021/11/10 01:00:57;;;;;;;183.77;53.72;;;;;;;1.32;100.00;100631.69;2094416;28;20575;-76
2021/11/10 01:01:59;;;;;;;128.33;50.13;;;;;;;1.33;100.00;100631.50;2103296;28;20228;-75
2021/11/10 01:02:59;;;;;;;163.80;51.35;;;;;;;1.35;100.00;100636.56;2094875;28;20222;-75
2021/11/10 01:04:02;;;;;;;174.00;53.00;;;;;;;1.37;100.00;100632.72;2094472;28;20230;-75
2021/11/10 01:05:07;;;;;;;134.02;50.55;;;;;;;1.37;100.00;100631.91;2094952;28;20304;-75
2021/11/10 01:06:09;;;;;;;194.65;52.33;;;;;;;1.40;100.00;100629.72;2095193;28;20225;-74
2021/11/10 01:07:09;;;;;;;198.32;51.40;;;;;;;1.39;100.00;100628.09;2095680;28;20221;-74
2021/11/10 01:08:11;;;;;;;296.27;52.90;;;;;;;1.38;100.00;100633.53;2094730;28;20297;-75
2021/11/10 01:09:16;;;;;;;197.57;52.28;;;;;;;1.35;100.00;100632.09;2086679;28;20230;-75
2021/11/10 01:10:18;;;;;;;166.13;51.58;;;;;;;1.32;100.00;100623.81;2086817;28;20273;-75
2021/11/10 01:11:19;;;;;;;302.45;54.30;;;;;;;1.34;100.00;100624.41;2094907;28;20664;-75
2021/11/10 01:12:21;;;;;;;216.48;51.75;;;;;;;1.37;100.00;100624.81;2095613;28;20561;-75
2021/11/10 01:13:24;;;;;;;229.23;50.05;;;;;;;1.42;100.00;100619.78;2102675;28;20553;-74
2021/11/10 01:14:30;;;;;;;394.20;54.58;;;;;;;1.38;100.00;100613.28;2094873;28;20222;-75
2021/11/10 01:15:33;;;;;;;171.55;50.83;;;;;;;1.36;100.00;100612.69;2094913;28;20695;-74
2021/11/10 01:16:35;;;;;;;259.15;51.42;;;;;;;1.34;100.00;100612.09;2086607;28;20242;-75
2021/11/10 01:17:36;;;;;;;431.20;56.70;;;;;;;1.32;100.00;100608.03;2086623;28;20226;-74
2021/11/10 01:18:38;;;;;;;263.05;52.42;;;;;;;1.30;100.00;100605.59;2077951;28;20223;-74
2021/11/10 01:19:43;;;;;;;183.15;49.40;;;;;;;1.29;100.00;100609.22;2079133;28;20277;-74
2021/11/10 01:20:48;;;;;;;178.93;51.17;;;;;;;1.33;100.00;100604.41;2078660;28;20225;-75
2021/11/10 01:21:49;;;;;;;227.30;51.80;;;;;;;1.37;100.00;100606.41;2077804;28;20230;-75
2021/11/10 01:22:51;;;;;;;188.13;51.10;;;;;;;1.39;100.00;100609.69;2086301;28;20225;-75
2021/11/10 01:23:51;;;;;;;297.50;52.88;;;;;;;1.41;100.00;100605.03;2094050;28;20226;-73
2021/11/10 01:24:53;;;;;;;346.47;55.40;;;;;;;1.42;100.00;100603.22;2094706;28;20279;-75
2021/11/10 01:25:56;;;;;;;340.20;54.83;;;;;;;1.37;100.00;100605.59;2094683;28;20226;-74
2021/11/10 01:26:58;;;;;;;158.65;48.85;;;;;;;1.39;100.00;100608.84;2086553;28;20233;-75
2021/11/10 01:28:01;;;;;;;284.05;52.10;;;;;;;1.45;100.00;100610.69;2086564;28;20219;-75
2021/11/10 01:29:04;;;;;;;354.83;53.97;;;;;;;1.43;100.00;100607.47;2086606;28;20222;-75
2021/11/10 01:30:07;;;;;;;211.05;52.15;;;;;;;1.54;100.00;100601.59;2094766;28;20245;-75
2021/11/10 01:31:08;;;;;;;225.02;50.17;;;;;;;1.57;100.00;100603.88;2094239;28;20246;-74
2021/11/10 01:32:10;;;;;;;180.37;49.00;;;;;;;1.61;100.00;100597.19;2086454;28;20230;-74
2021/11/10 01:33:16;;;;;;;313.60;52.97;;;;;;;1.62;100.00;100596.16;2086580;28;20238;-75
2021/11/10 01:34:18;;;;;;;176.35;49.15;;;;;;;1.60;100.00;100594.75;2095263;28;20233;-75
2021/11/10 01:35:19;;;;;;;328.85;52.92;;;;;;;1.55;100.00;100590.06;2094602;28;20240;-75
2021/11/10 01:36:21;;;;;;;264.48;51.00;;;;;;;1.46;100.00;100588.63;2094592;28;20281;-75
2021/11/10 01:37:22;;;;;;;327.52;51.25;;;;;;;1.38;100.00;100586.19;2094183;28;20318;-73
2021/11/10 01:38:25;;;;;;;216.73;50.67;;;;;;;1.32;100.00;100579.94;2086597;28;20806;-75
2021/11/10 01:39:28;;;;;;;245.68;49.67;;;;;;;1.30;100.00;100575.84;2086250;28;20234;-75
2021/11/10 01:40:30;;;;;;;162.50;47.08;;;;;;;1.29;100.00;100590.00;2094773;28;20758;-75
2021/11/10 01:41:31;;;;;;;202.88;50.33;;;;;;;1.25;100.00;100586.16;2094658;28;20225;-74
2021/11/10 01:42:33;;;;;;;200.20;50.38;;;;;;;1.24;100.00;100597.69;2094725;28;20305;-74
2021/11/10 01:43:34;;;;;;;175.10;47.60;;;;;;;1.25;100.00;100594.88;2094748;28;20221;-75
2021/11/10 01:44:39;;;;;;;233.17;51.23;;;;;;;1.24;100.00;100589.81;2094636;28;20248;-74
2021/11/10 01:45:40;;;;;;;331.80;53.40;;;;;;;1.19;100.00;100600.09;2086437;28;20233;-75
2021/11/10 01:46:42;;;;;;;255.23;50.70;;;;;;;1.15;100.00;100591.00;2086429;28;20219;-75
2021/11/10 01:47:43;;;;;;;252.45;50.42;;;;;;;1.11;100.00;100594.00;2086296;28;20218;-75
2021/11/10 01:48:45;;;;;;;269.08;53.35;;;;;;;1.13;100.00;100589.38;2086323;28;20242;-75
2021/11/10 01:49:46;;;;;;;218.15;50.60;;;;;;;1.16;100.00;100595.22;2086387;28;20645;-74
2021/11/10 01:50:51;;;;;;;263.55;52.92;;;;;;;1.15;100.00;100593.63;2086731;28;20276;-75
2021/11/10 01:51:54;;;;;;;290.85;53.00;;;;;;;1.13;100.00;100597.25;2084138;28;20229;-73
2021/11/10 01:52:58;;;;;;;235.48;52.83;;;;;;;1.10;100.00;100595.00;2086868;28;20296;-74
2021/11/10 01:53:59;;;;;;;340.73;55.97;;;;;;;1.09;100.00;100600.44;2094209;28;20700;-75
2021/11/10 01:55:05;;;;;;;233.88;52.17;;;;;;;1.06;100.00;100600.84;2094634;28;20664;-74
2021/11/10 01:56:06;;;;;;;196.55;50.25;;;;;;;1.06;100.00;100600.84;2095299;28;20751;-74
2021/11/10 01:57:09;;;;;;;302.73;52.60;;;;;;;1.06;100.00;100606.13;2091987;28;20225;-73
2021/11/10 01:58:13;;;;;;;379.80;57.72;;;;;;;1.02;100.00;100600.41;2086752;28;20630;-73
2021/11/10 01:59:27;;;;;;;267.38;54.90;;;;;;;1.01;100.00;100596.16;2094573;28;20701;-73
2021/11/10 02:00:34;;;;;;;336.05;53.15;;;;;;;1.04;100.00;100605.47;2087634;28;20227;-73
2021/11/10 02:01:43;;;;;;;298.13;54.10;;;;;;;1.03;100.00;100602.03;2086048;28;21502;-73
2021/11/10 02:02:45;;;;;;;274.48;53.10;;;;;;;1.04;100.00;100600.22;2086389;28;20219;-73
2021/11/10 02:03:48;;;;;;;208.48;52.88;;;;;;;1.06;100.00;100604.28;2086303;28;20548;-73
2021/11/10 02:04:54;;;;;;;258.73;53.25;;;;;;;1.06;100.00;100598.22;2094175;28;20245;-73
2021/11/10 02:05:56;;;;;;;450.90;57.13;;;;;;;1.03;100.00;100590.72;2086186;28;20218;-73
2021/11/10 02:07:19;;;;;;;269.25;53.55;;;;;;;1.03;100.00;100588.91;2083827;28;20312;-73
2021/11/10 02:08:22;;;;;;;248.88;53.17;;;;;;;1.02;100.00;100592.53;2093991;28;20704;-73
2021/11/10 02:09:23;;;;;;;184.18;51.30;;;;;;;1.03;100.00;100596.78;2085879;28;20300;-73
2021/11/10 02:10:26;;;;;;;215.45;54.13;;;;;;;1.03;100.00;100591.53;2086286;28;20230;-73
2021/11/10 02:11:28;;;;;;;174.52;50.22;;;;;;;1.03;100.00;100586.25;2086042;28;20226;-73
2021/11/10 02:12:44;;;;;;;193.13;51.63;;;;;;;1.06;100.00;100583.28;2094069;28;20235;-73
2021/11/10 02:13:45;;;;;;;176.75;48.95;;;;;;;1.06;100.00;100585.09;2086170;28;20238;-73
2021/11/10 02:14:47;;;;;;;283.30;56.45;;;;;;;1.03;100.00;100583.63;2094323;28;20702;-73
2021/11/10 02:15:51;;;;;;;329.60;55.97;;;;;;;1.02;100.00;100576.78;2094385;28;20723;-73
2021/11/10 02:16:54;;;;;;;231.77;51.72;;;;;;;1.00;100.00;100578.78;2094022;28;20250;-73
2021/11/10 02:18:01;;;;;;;209.30;49.88;;;;;;;0.99;100.00;100587.69;2086949;28;20218;-73
2021/11/10 02:19:06;;;;;;;200.80;52.28;;;;;;;1.01;100.00;100583.03;2086989;28;20223;-73
2021/11/10 02:20:11;;;;;;;290.77;52.97;;;;;;;1.03;100.00;100580.19;2086498;28;20219;-73
2021/11/10 02:21:16;;;;;;;274.02;52.42;;;;;;;1.02;100.00;100579.41;2086674;28;20219;-73
2021/11/10 02:22:18;;;;;;;296.80;52.42;;;;;;;1.02;100.00;100584.66;2086478;28;20283;-73
2021/11/10 02:23:20;;;;;;;172.98;48.65;;;;;;;1.05;100.00;100576.41;2094578;28;20623;-73
2021/11/10 02:24:23;;;;;;;258.80;53.15;;;;;;;1.03;100.00;100583.63;2086138;28;20230;-73
2021/11/10 02:25:27;;;;;;;211.40;51.53;;;;;;;1.02;100.00;100587.28;2085776;28;20632;-73
2021/11/10 02:26:28;;;;;;;239.75;50.20;;;;;;;1.01;100.00;100588.28;2094507;28;20270;-73
2021/11/10 02:27:34;;;;;;;205.83;50.20;;;;;;;0.99;100.00;100587.69;2094551;28;20263;-74
2021/11/10 02:28:35;;;;;;;319.17;52.85;;;;;;;0.97;100.00;100579.19;2086912;28;20252;-73
2021/11/10 02:29:39;;;;;;;284.38;51.50;;;;;;;0.97;100.00;100584.44;2094601;28;20676;-73
2021/11/10 02:30:42;;;;;;;240.98;47.85;;;;;;;0.97;100.00;100578.38;2094041;28;20275;-73
2021/11/10 02:31:44;;;;;;;324.85;53.20;;;;;;;0.92;100.00;100571.06;2086027;28;20223;-73
2021/11/10 02:32:48;;;;;;;219.75;50.60;;;;;;;0.90;100.00;100567.03;2086404;28;20234;-73
2021/11/10 02:33:49;;;;;;;236.75;51.55;;;;;;;0.93;100.00;100583.19;2086497;28;20597;-73
2021/11/10 02:34:51;;;;;;;183.63;48.07;;;;;;;0.94;100.00;100584.81;2086215;28;20222;-73
2021/11/10 02:36:01;;;;;;;215.82;51.00;;;;;;;0.95;100.00;100575.91;2087193;28;20271;-72
2021/11/10 02:37:04;;;;;;;248.65;51.58;;;;;;;0.97;100.00;100579.19;2096235;28;20233;-73
2021/11/10 02:38:10;;;;;;;391.98;56.30;;;;;;;0.99;100.00;100579.00;2096872;28;20572;-73
2021/11/10 02:39:12;;;;;;;306.77;51.33;;;;;;;1.01;100.00;100575.16;2095680;28;20233;-73
2021/11/10 02:40:14;;;;;;;411.13;56.85;;;;;;;1.02;100.00;100578.59;2096130;28;20220;-73
2021/11/10 02:41:15;;;;;;;398.42;56.33;;;;;;;1.01;100.00;100572.53;2087259;28;20284;-73
2021/11/10 02:42:18;;;;;;;583.07;62.47;;;;;;;1.01;100.00;100576.97;2096030;28;20267;-73
2021/11/10 02:43:19;;;;;;;263.92;50.30;;;;;;;1.00;100.00;100577.97;2088079;28;20689;-73
2021/11/10 02:44:22;;;;;;;593.10;64.47;;;;;;;0.99;100.00;100579.00;2087918;28;20241;-73
2021/11/10 02:45:24;;;;;;;441.60;57.13;;;;;;;1.00;100.00;100577.97;2087543;28;20767;-73
2021/11/10 02:46:26;;;;;;;366.90;54.13;;;;;;;0.99;100.00;100574.53;2096322;28;20696;-73
2021/11/10 02:47:27;;;;;;;275.75;55.35;;;;;;;0.99;100.00;100579.78;2096064;28;20222;-73
2021/11/10 02:48:28;;;;;;;420.48;55.03;;;;;;;0.99;100.00;100571.91;2087421;28;20269;-73
2021/11/10 02:49:30;;;;;;;401.30;54.80;;;;;;;1.01;100.00;100577.78;2096122;28;20305;-73
2021/11/10 02:50:35;;;;;;;447.42;56.03;;;;;;;1.01;100.00;100569.91;2096721;28;20668;-73
2021/11/10 02:51:36;;;;;;;325.02;53.63;;;;;;;1.03;100.00;100574.94;2096751;28;20267;-72
2021/11/10 02:52:39;;;;;;;412.00;54.90;;;;;;;1.03;100.00;100567.06;2093527;28;20236;-73
2021/11/10 02:53:40;;;;;;;291.92;52.28;;;;;;;1.06;100.00;100572.75;2096163;28;20540;-73
2021/11/10 02:54:43;;;;;;;401.63;54.97;;;;;;;1.06;100.00;100564.88;2095919;28;20257;-73
2021/11/10 02:55:44;;;;;;;306.95;52.75;;;;;;;1.08;100.00;100576.00;2095830;28;20309;-73
2021/11/10 02:56:48;;;;;;;265.27;47.43;;;;;;;1.06;100.00;100577.19;2096061;28;20222;-72
2021/11/10 02:57:52;;;;;;;317.55;51.42;;;;;;;1.07;100.00;100569.13;2095181;28;20327;-72
2021/11/10 02:58:53;;;;;;;251.38;49.65;;;;;;;1.03;100.00;100562.63;2087675;28;20622;-73
2021/11/10 02:59:56;;;;;;;228.37;49.07;;;;;;;1.04;100.00;100566.91;2087596;28;20242;-73
2021/11/10 03:00:56;;;;;;;372.83;53.45;;;;;;;1.03;100.00;100567.06;2095955;28;21696;-73
2021/11/10 03:01:59;;;;;;;374.55;52.33;;;;;;;1.02;100.00;100568.06;2087293;28;20227;-73
2021/11/10 03:03:02;;;;;;;260.55;47.60;;;;;;;1.00;100.00;100568.28;2088121;28;20276;-72
2021/11/10 03:04:06;;;;;;;288.88;47.92;;;;;;;0.98;100.00;100566.84;2087735;28;20717;-73
2021/11/10 03:05:08;;;;;;;206.00;48.22;;;;;;;0.97;100.00;100568.69;2087001;28;20230;-73
2021/11/10 03:06:10;;;;;;;198.32;46.28;;;;;;;0.98;100.00;100567.66;2087761;28;20253;-73
2021/11/10 03:07:12;;;;;;;280.58;46.22;;;;;;;0.97;100.00;100566.06;2087889;28;20226;-73
2021/11/10 03:08:19;;;;;;;182.35;45.03;;;;;;;0.96;100.00;100561.00;2095906;28;20668;-73
2021/11/10 03:09:24;;;;;;;279.15;51.08;;;;;;;0.94;100.00;100566.41;2086011;28;20227;-73
2021/11/10 03:10:28;;;;;;;353.23;48.42;;;;;;;0.92;100.00;100571.06;2088032;28;20641;-72
2021/11/10 03:11:32;;;;;;;433.90;52.10;;;;;;;0.92;100.00;100571.06;2095815;28;20226;-73
2021/11/10 03:12:35;;;;;;;454.63;53.60;;;;;;;0.89;100.00;100576.72;2087915;28;20313;-73
2021/11/10 03:13:39;;;;;;;386.65;51.33;;;;;;;0.89;100.00;100576.72;2087634;28;20650;-72
2021/11/10 03:14:42;;;;;;;263.48;47.42;;;;;;;0.88;100.00;100569.84;2087586;28;20661;-73
2021/11/10 03:15:46;;;;;;;201.73;46.65;;;;;;;0.85;100.00;100565.78;2095850;28;20279;-72
2021/11/10 03:16:47;;;;;;;310.73;49.50;;;;;;;0.85;100.00;100560.53;2095846;28;20703;-73
2021/11/10 03:17:49;;;;;;;304.33;49.85;;;;;;;0.83;100.00;100554.66;2087632;28;20306;-73
2021/11/10 03:18:53;;;;;;;206.10;46.47;;;;;;;0.83;100.00;100553.84;2087421;28;20577;-73
2021/11/10 03:19:58;;;;;;;250.90;47.67;;;;;;;0.83;100.00;100548.59;2088097;28;20231;-73
2021/11/10 03:20:59;;;;;;;289.27;48.08;;;;;;;0.83;100.00;100546.78;2087646;28;20223;-73
2021/11/10 03:22:01;;;;;;;330.20;50.53;;;;;;;0.80;100.00;100538.50;2095342;28;20222;-73
2021/11/10 03:23:04;;;;;;;405.67;52.70;;;;;;;0.82;100.00;100550.41;2095813;28;20719;-73
2021/11/10 03:24:07;;;;;;;317.25;51.67;;;;;;;0.83;100.00;100540.72;2087657;28;20219;-73
2021/11/10 03:25:09;;;;;;;310.85;49.55;;;;;;;0.85;100.00;100542.13;2087137;28;20224;-73
2021/11/10 03:26:11;;;;;;;435.38;53.63;;;;;;;0.90;100.00;100546.81;2087596;28;20234;-73
2021/11/10 03:27:13;;;;;;;382.17;52.97;;;;;;;0.90;100.00;100552.06;2087697;28;20241;-73
2021/11/10 03:28:15;;;;;;;279.02;49.00;;;;;;;0.88;100.00;100551.47;2094644;28;20222;-74
2021/11/10 03:29:15;;;;;;;395.77;51.85;;;;;;;0.87;100.00;100543.75;2095402;28;20218;-74
2021/11/10 03:30:20;;;;;;;249.10;50.90;;;;;;;0.85;100.00;100555.28;2087790;28;20225;-74
2021/11/10 03:31:34;;;;;;;368.52;52.53;;;;;;;0.85;100.00;100550.00;2094742;28;20229;-74
2021/11/10 03:32:36;;;;;;;211.98;47.28;;;;;;;0.83;100.00;100548.59;2087579;28;20682;-74
2021/11/10 03:33:37;;;;;;;238.52;48.58;;;;;;;0.87;100.00;100557.72;2095229;28;20735;-73
2021/11/10 03:34:39;;;;;;;201.05;47.38;;;;;;;0.87;100.00;100552.47;2095688;28;20264;-73
2021/11/10 03:35:40;;;;;;;193.07;46.30;;;;;;;0.87;100.00;100551.63;2087616;28;20780;-74
2021/11/10 03:36:49;;;;;;;290.73;51.22;;;;;;;0.84;100.00;100543.13;2095633;28;20229;-74
2021/11/10 03:37:51;;;;;;;289.40;49.58;;;;;;;0.88;100.00;100543.56;2087389;28;20617;-74
2021/11/10 03:38:56;;;;;;;224.73;47.45;;;;;;;0.88;100.00;100546.22;2087393;28;20725;-74
2021/11/10 03:39:58;;;;;;;243.98;48.85;;;;;;;0.88;100.00;100555.91;2087449;28;20262;-74
2021/11/10 03:41:00;;;;;;;243.88;48.65;;;;;;;0.90;100.00;100548.63;2095654;28;20680;-74
2021/11/10 03:42:07;;;;;;;277.10;49.53;;;;;;;0.87;100.00;100549.84;2093270;28;20222;-73
2021/11/10 03:43:11;;;;;;;249.70;47.22;;;;;;;0.85;100.00;100550.00;2087681;28;20640;-74
2021/11/10 03:44:12;;;;;;;172.65;46.08;;;;;;;0.85;100.00;100555.28;2087411;28;20245;-74
2021/11/10 03:45:19;;;;;;;254.05;47.78;;;;;;;0.88;100.00;100554.09;2087506;28;20218;-74
2021/11/10 03:46:23;;;;;;;374.85;49.95;;;;;;;0.87;100.00;100549.84;2094994;28;20226;-74
2021/11/10 03:47:26;;;;;;;181.40;45.65;;;;;;;0.87;100.00;100554.25;2087378;28;20306;-74
2021/11/10 03:48:27;;;;;;;172.55;45.08;;;;;;;0.84;100.00;100545.78;2087476;28;20256;-74
2021/11/10 03:49:29;;;;;;;187.23;43.97;;;;;;;0.88;100.00;100548.84;2087325;28;20226;-74
2021/11/10 03:50:30;;;;;;;140.65;43.35;;;;;;;0.90;100.00;100541.56;2087436;28;20238;-74
2021/11/10 03:51:33;;;;;;;185.38;45.38;;;;;;;0.95;100.00;100535.69;2095599;28;20603;-73
2021/11/10 03:52:36;;;;;;;261.80;46.97;;;;;;;0.93;100.00;100528.03;2095594;28;20317;-73
2021/11/10 03:53:40;;;;;;;184.25;45.28;;;;;;;0.92;100.00;100534.28;2087609;28;20226;-73
2021/11/10 03:54:42;;;;;;;195.80;46.38;;;;;;;0.90;100.00;100530.25;2095575;28;20232;-73
2021/11/10 03:55:45;;;;;;;142.38;44.08;;;;;;;0.87;100.00;100528.81;2095415;28;20222;-74
2021/11/10 03:56:47;;;;;;;191.45;46.17;;;;;;;0.91;100.00;100527.41;2095767;28;20244;-74
2021/11/10 03:57:48;;;;;;;243.63;47.88;;;;;;;0.99;100.00;100526.44;2095121;28;20695;-73
2021/11/10 03:58:50;;;;;;;156.68;45.08;;;;;;;1.00;100.00;100526.22;2086820;28;20585;-74
2021/11/10 03:59:52;;;;;;;205.05;45.80;;;;;;;0.98;100.00;100525.63;2086887;28;20257;-74
2021/11/10 04:00:54;;;;;;;199.13;44.00;;;;;;;0.98;100.00;100524.81;2086860;28;20226;-73
2021/11/10 04:01:56;;;;;;;149.55;44.88;;;;;;;0.95;100.00;100531.25;2087258;28;20265;-73
2021/11/10 04:02:56;;;;;;;228.52;45.67;;;;;;;0.95;100.00;100528.63;2095655;28;20225;-74
2021/11/10 04:04:04;;;;;;;179.30;45.17;;;;;;;0.95;100.00;100525.19;2095478;28;20226;-73
2021/11/10 04:05:06;;;;;;;274.23;48.17;;;;;;;0.88;100.00;100527.81;2095568;28;20221;-74
2021/11/10 04:06:11;;;;;;;150.38;42.58;;;;;;;0.83;100.00;100525.75;2095441;28;20691;-73
2021/11/10 04:07:15;;;;;;;306.45;48.65;;;;;;;0.89;100.00;100521.56;2096319;28;20232;-73
2021/11/10 04:08:17;;;;;;;352.40;48.95;;;;;;;0.85;100.00;100523.75;2095422;28;20279;-74
2021/11/10 04:09:19;;;;;;;227.45;48.50;;;;;;;0.84;100.00;100522.13;2087424;28;20295;-74
2021/11/10 04:10:21;;;;;;;228.63;47.10;;;;;;;0.85;100.00;100522.94;2087138;28;20302;-74
2021/11/10 04:11:24;;;;;;;256.80;48.20;;;;;;;0.84;100.00;100522.13;2095184;28;20304;-74
2021/11/10 04:12:25;;;;;;;278.17;45.70;;;;;;;0.80;100.00;100517.47;2087277;28;20230;-74
2021/11/10 04:13:28;;;;;;;185.07;44.15;;;;;;;0.87;100.00;100520.94;2087199;28;20345;-74
2021/11/10 04:14:30;;;;;;;186.82;44.53;;;;;;;0.93;100.00;100514.88;2087211;28;20222;-73
2021/11/10 04:15:32;;;;;;;166.98;45.00;;;;;;;0.94;100.00;100519.13;2095331;28;20224;-74
2021/11/10 04:16:33;;;;;;;225.32;45.13;;;;;;;0.88;100.00;100512.06;2095485;28;20301;-73
2021/11/10 04:17:34;;;;;;;157.38;44.78;;;;;;;0.89;100.00;100518.91;2087185;28;20223;-74
2021/11/10 04:18:37;;;;;;;189.35;45.03;;;;;;;0.96;100.00;100519.75;2087207;28;20225;-74
2021/11/10 04:19:47;;;;;;;198.50;47.30;;;;;;;1.04;100.00;100506.44;2096188;28;20237;-74
2021/11/10 04:20:48;;;;;;;247.77;48.50;;;;;;;0.99;100.00;100510.66;2095329;28;20233;-73
2021/11/10 04:21:52;;;;;;;244.90;46.90;;;;;;;0.96;100.00;100498.75;2087212;28;20693;-73
2021/11/10 04:22:53;;;;;;;221.25;46.90;;;;;;;1.00;100.00;100499.94;2086925;28;20234;-74
2021/11/10 04:23:56;;;;;;;176.73;43.73;;;;;;;1.06;100.00;100496.53;2095428;28;20309;-73
2021/11/10 04:24:58;;;;;;;213.57;47.80;;;;;;;1.10;100.00;100499.56;2096001;28;20456;-74
2021/11/10 04:26:03;;;;;;;170.73;43.40;;;;;;;1.11;100.00;100495.94;2095296;28;20696;-72
2021/11/10 04:27:08;;;;;;;345.30;49.03;;;;;;;1.04;100.00;100498.56;2087592;28;20453;-73
2021/11/10 04:28:11;;;;;;;273.80;48.13;;;;;;;0.97;100.00;100499.56;2094898;28;20222;-72
2021/11/10 04:29:13;;;;;;;245.40;45.97;;;;;;;0.96;100.00;100508.44;2087284;28;20226;-74
2021/11/10 04:30:14;;;;;;;292.48;49.78;;;;;;;0.97;100.00;100505.63;2086742;28;20284;-74
2021/11/10 04:31:17;;;;;;;241.35;47.25;;;;;;;0.94;100.00;100503.34;2095248;28;20218;-74
2021/11/10 04:32:19;;;;;;;298.60;48.83;;;;;;;0.93;100.00;100493.84;2095385;28;20217;-72
2021/11/10 04:33:22;;;;;;;215.32;46.05;;;;;;;1.09;100.00;100501.38;2095192;28;20275;-72
2021/11/10 04:34:24;;;;;;;190.02;45.28;;;;;;;1.08;100.00;100494.53;2094902;28;20279;-74
2021/11/10 04:35:30;;;;;;;262.63;47.22;;;;;;;1.10;100.00;100476.72;2095179;28;20315;-74
2021/11/10 04:36:33;;;;;;;218.35;46.38;;;;;;;1.15;100.00;100485.84;2086823;28;20366;-74
2021/11/10 04:37:36;;;;;;;357.13;51.40;;;;;;;1.06;100.00;100482.59;2087207;28;20682;-74
2021/11/10 04:38:39;;;;;;;328.52;47.97;;;;;;;1.06;100.00;100479.97;2086803;28;20250;-74
2021/11/10 04:39:42;;;;;;;348.58;52.63;;;;;;;1.04;100.00;100485.44;2086925;28;20249;-74
2021/11/10 04:40:46;;;;;;;389.10;50.83;;;;;;;0.99;100.00;100479.13;2087282;28;20246;-74
2021/11/10 04:41:48;;;;;;;432.23;52.30;;;;;;;0.96;100.00;100477.72;2086742;28;20269;-74
2021/11/10 04:42:51;;;;;;;338.35;49.65;;;;;;;1.04;100.00;100485.44;2087035;28;20635;-74